Aeroporto :
LOGIN :

Iscrizione | Disclaimer

   EN    FR    IT 

 










Sommario :    VFR   VFR Marginale   IFR   IFR Intensivo   IFR Molto Intensivo
Visibilità : 
Base nubi : 
>= 8 km
>= 3000ft
5 / 8 km
1000 / 3000 ft
1500m / 5 km
500 / 1000 ft
800 / 1500m
200 / 500 ft
< 800m
< 200 ft
Simboli :   Temporali  Nebbia  Neve Forte  Precipitazioni Forti  Vento > 20 kt
SIGMETs :   Varie  Temporali  Ghiacco  Turbolenza  Onda orograficha  Ceneri Vulcaniche






- Altitudine del aeroporto : 1674 ft
- Codice IATA : BRN


LSZB - Bern Belp

ULTIMO METAR :
  • 191720Z 12007KT 9999 FEW004 SCT007 BKN029 16/15 Q1019

METARs OBSOLETI :
  • 191650Z 13009KT 9999 -RA SCT005 BKN032 16/15 Q1019
  • 191620Z 13009KT 100V160 4000 RA FEW021 BKN026 16/16 Q1019
  • 191550Z 13009KT 9000 -RA SCT050 BKN075 17/15 Q1018
  • 191520Z 14010KT 9999 FEW010 SCT055 BKN075 17/15 Q1018

TAF TAF LSZB
Valido dal 19 a 15 ore il 20 a 00 ore UTC


191425Z 1915/1924 12008KT 9999 -DZ FEW010 BKN065
PROB40
TEMPO 1915/1918 4500 RA
ATIS : +41 22 417 40 76



MetMap, La meteo Aeronautica in un colpo d'occhio ! - Copyright ORBIFLY Dicembre 2007 - Disclaimer

ORBIFLY MET'MAP TEAM :

Programmazione e sviluppo : Alexandra Zaïnal
Concezione : Baudouin d'Aumeries
Supporto tecnico e logistico : Manuel Goepfert
Aiuto : Marc-Olivier Méhu
Aiuto per la traduzione : Arnaldo La Scala




FONTI E CREDITI :

   NOAA